CheckWX is a tool to help pilots better visualize weather data.  It is not intended as a substitute for an official pre-flight weather briefing.

23:49:03 UTC

KLSE TAF
La Crosse Regional Airport
La Crosse, Wisconsin, USA
KLSE 222330Z 2300/2324 20005KT P6SM SKC FM231700 25008KT P6SM SKC

Nov-23@
00:00 UTC

Nov-23 @ 00:00 UTC

Nov-23@
17:00 UTC

Nov-23 @ 17:00 UTC

KLSE 222330Z 2300/2324 20005KT P6SM SKC
Wind
  • 200° at 5 KTS
Cloud Levels
  • Clear skies

Nov-23@
17:00 UTC

Nov-23 @ 17:00 UTC

Nov-24@
00:00 UTC

Nov-24 @ 00:00 UTC

FM231700 25008KT P6SM SKC

From

From Standard forecast or significant change

Wind
  • 250° at 8 KTS
Cloud Levels
  • Clear skies